createdAt,value
2023-04-20T00:03:14.057Z,12.10
2023-04-20T00:06:55.832Z,15.20
2023-04-20T00:10:24.954Z,12.30
2023-04-20T00:14:12.615Z,11.40
2023-04-20T00:18:01.803Z,12.80
2023-04-20T00:21:50.892Z,10.90
2023-04-20T00:25:03.825Z,16.40
2023-04-20T00:28:42.963Z,12.70
2023-04-20T00:32:32.170Z,12.00
2023-04-20T00:36:21.314Z,11.70
2023-04-20T00:39:31.354Z,11.80
2023-04-20T00:43:20.649Z,14.20
2023-04-20T00:47:00.582Z,17.40
2023-04-20T00:50:32.040Z,14.00
2023-04-20T00:54:08.920Z,13.00
2023-04-20T00:57:41.069Z,13.40
2023-04-20T01:01:19.329Z,15.50
2023-04-20T01:04:59.258Z,15.70
2023-04-20T01:08:25.903Z,15.60
2023-04-20T01:12:04.942Z,15.60
2023-04-20T01:15:26.982Z,17.70
2023-04-20T01:19:04.359Z,19.90
2023-04-20T01:22:58.660Z,14.30
2023-04-20T01:26:06.596Z,14.90
2023-04-20T01:29:55.693Z,18.80
2023-04-20T01:33:24.427Z,22.00
2023-04-20T01:37:02.457Z,18.20
2023-04-20T01:40:27.343Z,17.50
2023-04-20T01:44:09.078Z,20.50
2023-04-20T01:47:46.733Z,19.40
2023-04-20T01:51:16.301Z,23.50
2023-04-20T01:54:58.218Z,24.20
2023-04-20T01:58:29.603Z,23.30
2023-04-20T02:02:03.977Z,19.20
2023-04-20T02:05:28.511Z,22.50
2023-04-20T02:08:52.702Z,22.30
2023-04-20T02:12:09.711Z,23.80
2023-04-20T02:15:38.687Z,23.10
2023-04-20T02:19:06.579Z,25.80
2023-04-20T02:26:13.275Z,23.10
2023-04-20T02:29:45.085Z,23.20
2023-04-20T02:32:49.913Z,27.70
2023-04-20T02:36:14.953Z,26.00
2023-04-20T02:39:28.768Z,24.10
2023-04-20T02:46:09.766Z,23.60
2023-04-20T02:49:34.629Z,25.10
2023-04-20T02:53:10.473Z,27.50
2023-04-20T02:56:41.519Z,27.60
2023-04-20T03:00:24.251Z,27.10
2023-04-20T03:04:04.323Z,25.50
2023-04-20T03:07:38.825Z,27.90
2023-04-20T03:11:19.554Z,25.10
2023-04-20T03:14:49.310Z,25.40
2023-04-20T03:21:59.082Z,28.90
2023-04-20T03:25:14.558Z,26.30
2023-04-20T03:28:56.982Z,25.80
2023-04-20T03:32:08.529Z,25.00
2023-04-20T03:35:44.317Z,29.40
2023-04-20T03:39:34.629Z,26.20
2023-04-20T03:43:16.918Z,33.00
2023-04-20T03:46:50.328Z,27.10
2023-04-20T03:50:19.423Z,27.70
2023-04-20T03:53:35.216Z,29.10
2023-04-20T03:57:15.391Z,29.10
2023-04-20T04:00:24.193Z,25.30
2023-04-20T04:03:31.055Z,25.20
2023-04-20T04:06:22.296Z,26.80
2023-04-20T04:09:36.239Z,28.00
2023-04-20T04:12:59.497Z,28.70
2023-04-20T04:15:57.174Z,23.90
2023-04-20T04:18:32.467Z,28.50
2023-04-20T04:21:06.922Z,26.90
2023-04-20T04:24:04.988Z,28.20
2023-04-20T04:27:05.503Z,25.80
2023-04-20T04:29:45.697Z,26.90
2023-04-20T04:32:26.464Z,31.10
2023-04-20T04:35:26.345Z,26.30
2023-04-20T04:38:33.662Z,22.90
2023-04-20T04:41:49.517Z,25.80
2023-04-20T04:44:39.644Z,27.30
2023-04-20T04:47:14.552Z,25.60
2023-04-20T04:49:54.268Z,26.70
2023-04-20T04:52:37.939Z,25.30
2023-04-20T04:55:48.011Z,25.40
2023-04-20T04:58:31.317Z,28.10
2023-04-20T05:01:27.789Z,28.30
2023-04-20T05:04:34.625Z,25.70
2023-04-20T05:07:21.454Z,26.40
2023-04-20T05:10:29.145Z,26.70
2023-04-20T05:13:30.704Z,27.00
2023-04-20T05:16:30.239Z,28.70
2023-04-20T05:19:22.450Z,28.50
2023-04-20T05:22:54.297Z,26.80
2023-04-20T05:26:06.542Z,27.10
2023-04-20T05:28:43.098Z,28.70
2023-04-20T05:31:45.721Z,30.40
2023-04-20T05:34:26.111Z,26.80
2023-04-20T05:37:13.523Z,26.50
2023-04-20T05:39:54.917Z,30.20
2023-04-20T05:42:52.580Z,30.50
2023-04-20T05:45:29.940Z,31.20
2023-04-20T05:48:33.982Z,30.80
2023-04-20T05:51:34.505Z,29.80
2023-04-20T05:54:28.496Z,31.10
2023-04-20T05:57:05.673Z,33.50
2023-04-20T05:59:56.264Z,30.10
2023-04-20T06:02:35.853Z,30.00
2023-04-20T06:05:34.398Z,32.00
2023-04-20T06:08:50.972Z,35.20
2023-04-20T06:11:36.279Z,41.50
2023-04-20T06:14:18.272Z,37.80
2023-04-20T06:17:21.301Z,37.00
2023-04-20T06:20:23.141Z,39.70
2023-04-20T06:23:28.578Z,33.00
2023-04-20T06:26:25.518Z,34.00
2023-04-20T06:29:04.575Z,37.00
2023-04-20T06:31:58.406Z,36.60
2023-04-20T06:34:51.284Z,36.50
2023-04-20T06:37:38.991Z,36.50
2023-04-20T06:40:43.240Z,42.00
2023-04-20T06:43:50.093Z,47.30
2023-04-20T06:46:36.470Z,44.70
2023-04-20T06:49:16.645Z,42.40
2023-04-20T06:52:34.184Z,50.50
2023-04-20T06:55:49.256Z,49.00
2023-04-20T06:58:25.809Z,53.00
2023-04-20T07:01:03.504Z,55.90
2023-04-20T07:06:43.267Z,48.80
2023-04-20T07:09:23.425Z,52.10
2023-04-20T07:14:43.220Z,59.00
2023-04-20T07:17:20.500Z,53.30
2023-04-20T07:20:26.180Z,54.00
2023-04-20T07:23:05.187Z,51.30
2023-04-20T07:26:17.794Z,56.10
2023-04-20T07:28:58.470Z,53.10
2023-04-20T07:34:30.132Z,53.30
2023-04-20T07:37:10.182Z,53.20
2023-04-20T07:39:43.682Z,59.00
2023-04-20T07:42:15.546Z,57.70
2023-04-20T07:44:59.072Z,56.00
2023-04-20T07:47:51.541Z,52.50
2023-04-20T07:50:26.649Z,56.50
2023-04-20T07:53:03.751Z,61.40
2023-04-20T07:55:37.464Z,57.10
2023-04-20T07:58:06.332Z,56.30
2023-04-20T08:00:38.491Z,51.80
2023-04-20T08:03:23.384Z,50.80
2023-04-20T08:05:57.768Z,53.10
2023-04-20T08:08:47.961Z,49.20
2023-04-20T08:11:19.506Z,50.90
2023-04-20T08:14:11.131Z,50.40
2023-04-20T08:16:55.072Z,49.30
2023-04-20T08:19:26.872Z,49.30
2023-04-20T08:22:01.502Z,50.60
2023-04-20T08:24:41.402Z,53.40
2023-04-20T08:27:32.413Z,44.00
2023-04-20T08:30:08.977Z,51.90
2023-04-20T08:32:45.471Z,50.70
2023-04-20T08:35:41.977Z,51.10
2023-04-20T08:38:32.902Z,50.90
2023-04-20T08:41:09.589Z,44.30
2023-04-20T08:43:50.936Z,47.70
2023-04-20T08:46:34.041Z,52.60
2023-04-20T08:49:24.554Z,55.20
2023-04-20T08:52:10.957Z,56.80
2023-04-20T08:54:56.866Z,53.10
2023-04-20T08:57:35.457Z,53.00
2023-04-20T09:00:16.228Z,53.00
2023-04-20T09:03:02.066Z,53.10
2023-04-20T09:05:53.015Z,53.60
2023-04-20T09:08:34.805Z,50.70
2023-04-20T09:11:39.233Z,47.40
2023-04-20T09:14:24.820Z,50.90
2023-04-20T09:17:14.928Z,51.80
2023-04-20T09:20:06.827Z,54.00
2023-04-20T09:22:47.487Z,46.80
2023-04-20T09:25:32.656Z,54.80
2023-04-20T09:28:24.483Z,54.30
2023-04-20T09:30:56.445Z,58.20
2023-04-20T09:33:41.309Z,46.80
2023-04-20T09:36:26.789Z,50.40
2023-04-20T09:39:16.302Z,49.70
2023-04-20T09:41:51.212Z,48.80
2023-04-20T09:44:30.111Z,49.60
2023-04-20T09:47:06.782Z,50.50
2023-04-20T09:49:53.195Z,51.20
2023-04-20T09:52:30.469Z,55.60
2023-04-20T09:55:14.511Z,51.10
2023-04-20T09:57:50.257Z,54.60
2023-04-20T10:00:27.560Z,49.60
2023-04-20T10:03:05.233Z,50.00
2023-04-20T10:05:39.859Z,51.10
2023-04-20T10:08:20.595Z,47.30
2023-04-20T10:10:55.255Z,46.00
2023-04-20T10:13:34.191Z,47.80
2023-04-20T10:16:17.222Z,42.60
2023-04-20T10:19:07.711Z,43.90
2023-04-20T10:21:48.412Z,40.00
2023-04-20T10:24:31.593Z,47.50
2023-04-20T10:27:20.546Z,43.60
2023-04-20T10:29:54.799Z,42.30
2023-04-20T10:32:28.046Z,40.80
2023-04-20T10:35:06.624Z,40.10
2023-04-20T10:37:47.959Z,36.70
2023-04-20T10:40:16.634Z,36.90
2023-04-20T10:42:46.159Z,36.00
2023-04-20T10:45:16.875Z,37.70
2023-04-20T10:47:45.887Z,34.30
2023-04-20T10:50:18.368Z,36.00
2023-04-20T10:52:46.917Z,37.00
2023-04-20T10:55:20.835Z,34.20
2023-04-20T10:57:52.483Z,37.50
2023-04-20T11:00:26.571Z,30.40
2023-04-20T11:02:59.310Z,31.70
2023-04-20T11:05:28.093Z,33.50
2023-04-20T11:08:03.395Z,30.70
2023-04-20T11:10:42.826Z,34.00
2023-04-20T11:13:25.609Z,33.00
2023-04-20T11:15:54.033Z,29.50
2023-04-20T11:18:25.163Z,32.20
2023-04-20T11:20:55.290Z,29.50
2023-04-20T11:25:57.475Z,30.70
2023-04-20T11:28:30.550Z,29.10
2023-04-20T11:30:59.030Z,29.70
2023-04-20T11:33:31.665Z,30.00
2023-04-20T11:36:01.121Z,29.40
2023-04-20T11:38:34.620Z,30.50
2023-04-20T11:41:08.067Z,28.00
2023-04-20T11:43:36.382Z,27.10
2023-04-20T11:46:17.144Z,31.20
2023-04-20T11:48:49.529Z,26.50
2023-04-20T11:51:17.893Z,26.70
2023-04-20T11:53:46.886Z,28.40
2023-04-20T11:56:15.126Z,27.40
2023-04-20T11:58:43.289Z,27.80
2023-04-20T12:01:11.605Z,26.10
2023-04-20T12:03:40.561Z,27.30
2023-04-20T12:06:09.282Z,28.50
2023-04-20T12:08:37.672Z,24.70
2023-04-20T12:11:06.039Z,25.10
2023-04-20T12:13:34.209Z,26.20
2023-04-20T12:16:02.405Z,21.80
2023-04-20T12:18:30.758Z,22.50
2023-04-20T12:20:59.952Z,22.20
2023-04-20T12:23:28.328Z,21.20
2023-04-20T12:25:56.919Z,23.60
2023-04-20T12:28:25.288Z,19.20
2023-04-20T12:30:53.497Z,25.30
2023-04-20T12:33:21.733Z,21.50
2023-04-20T12:35:49.910Z,18.70
2023-04-20T12:38:18.288Z,21.20
2023-04-20T12:40:46.765Z,17.30
2023-04-20T12:43:15.044Z,21.40
2023-04-20T12:45:43.207Z,21.10
2023-04-20T12:48:11.506Z,16.10
2023-04-20T12:50:39.962Z,17.50
2023-04-20T12:53:08.147Z,19.20
2023-04-20T12:55:36.410Z,19.90
2023-04-20T12:58:04.585Z,21.70
2023-04-20T13:00:33.170Z,22.20
2023-04-20T13:03:02.116Z,21.90
2023-04-20T13:05:30.737Z,21.20
2023-04-20T13:07:59.030Z,20.70
2023-04-20T13:10:27.388Z,19.30
2023-04-20T13:13:04.779Z,21.50
2023-04-20T13:18:06.635Z,20.50
2023-04-20T13:20:35.049Z,17.40
2023-04-20T13:23:04.326Z,17.20
2023-04-20T13:25:33.618Z,17.80
2023-04-20T13:28:03.450Z,17.70
2023-04-20T13:30:32.372Z,17.00
2023-04-20T13:33:00.881Z,18.80
2023-04-20T13:35:29.086Z,17.90
2023-04-20T13:37:57.456Z,20.30
2023-04-20T13:40:26.243Z,19.90
2023-04-20T13:42:54.832Z,17.80
2023-04-20T13:45:23.715Z,19.00
2023-04-20T13:47:54.981Z,18.80
2023-04-20T13:50:23.645Z,17.30
2023-04-20T13:52:54.889Z,15.50
2023-04-20T13:55:24.347Z,18.60
2023-04-20T13:57:53.595Z,19.40
2023-04-20T14:00:23.714Z,14.40
2023-04-20T14:02:52.355Z,12.70
2023-04-20T14:05:20.972Z,13.20
2023-04-20T14:07:49.150Z,16.60
2023-04-20T14:10:17.736Z,18.20
2023-04-20T14:12:46.208Z,13.00
2023-04-20T14:15:14.482Z,13.70
2023-04-20T14:17:42.687Z,16.20
2023-04-20T14:20:11.874Z,13.30
2023-04-20T14:22:40.040Z,10.90
2023-04-20T14:25:08.715Z,13.70
2023-04-20T14:27:36.986Z,11.20
2023-04-20T14:30:06.271Z,13.10
2023-04-20T14:32:35.501Z,15.50
2023-04-20T14:35:05.601Z,15.00
2023-04-20T14:37:34.286Z,13.60
2023-04-20T14:40:02.555Z,12.60
2023-04-20T14:42:30.939Z,11.20
2023-04-20T14:44:59.105Z,12.10
2023-04-20T14:47:27.321Z,8.90
2023-04-20T14:49:55.460Z,10.80
2023-04-20T14:52:23.832Z,10.20
2023-04-20T14:54:51.998Z,10.20
2023-04-20T14:57:20.692Z,9.20
2023-04-20T14:59:48.855Z,15.70
2023-04-20T15:02:18.735Z,8.40
2023-04-20T15:04:47.490Z,8.20
2023-04-20T15:07:15.825Z,11.40
2023-04-20T15:09:43.998Z,11.70
2023-04-20T15:12:12.374Z,12.90
2023-04-20T15:14:40.751Z,8.00
2023-04-20T15:17:09.033Z,13.80
2023-04-20T15:19:37.406Z,8.80
2023-04-20T15:22:05.698Z,14.70
2023-04-20T15:24:33.955Z,12.30
2023-04-20T15:27:03.541Z,10.90
2023-04-20T15:29:33.581Z,9.20
2023-04-20T15:32:01.798Z,11.90
2023-04-20T15:34:30.328Z,9.00
2023-04-20T15:36:58.476Z,10.70
2023-04-20T15:39:26.673Z,12.80
2023-04-20T15:41:54.860Z,11.40
2023-04-20T15:44:23.023Z,11.30
2023-04-20T15:46:51.297Z,11.10
2023-04-20T15:49:20.695Z,10.10
2023-04-20T15:51:48.967Z,9.60
2023-04-20T15:54:17.445Z,9.10
2023-04-20T15:56:46.234Z,16.20
2023-04-20T15:59:14.405Z,11.90
2023-04-20T16:01:42.630Z,12.20
2023-04-20T16:04:11.432Z,11.60
2023-04-20T16:06:41.285Z,12.70
2023-04-20T16:11:37.520Z,11.00
2023-04-20T16:14:05.999Z,12.30
2023-04-20T16:16:34.336Z,19.60
2023-04-20T16:19:02.760Z,9.40
2023-04-20T16:21:30.921Z,14.20
2023-04-20T16:23:59.200Z,11.00
2023-04-20T16:26:27.372Z,9.80
2023-04-20T16:28:55.751Z,16.60
2023-04-20T16:31:24.207Z,11.80
2023-04-20T16:33:52.812Z,13.10
2023-04-20T16:36:21.496Z,13.10
2023-04-20T16:38:49.668Z,13.10
2023-04-20T16:41:18.163Z,12.30
2023-04-20T16:43:47.039Z,14.30
2023-04-20T16:46:16.627Z,16.00
2023-04-20T16:48:45.231Z,8.30
2023-04-20T16:51:13.811Z,13.60
2023-04-20T16:53:43.109Z,11.00
2023-04-20T16:56:12.401Z,12.70
2023-04-20T16:58:40.784Z,10.90
2023-04-20T17:01:09.480Z,15.10
2023-04-20T17:03:38.289Z,13.70
2023-04-20T17:06:09.936Z,9.70
2023-04-20T17:08:38.496Z,9.50
2023-04-20T17:11:07.074Z,11.70
2023-04-20T17:13:35.653Z,9.00
2023-04-20T17:16:04.514Z,15.40
2023-04-20T17:18:34.457Z,13.20
2023-04-20T17:21:02.942Z,7.90
2023-04-20T17:23:34.180Z,14.00
2023-04-20T17:26:03.478Z,10.50
2023-04-20T17:28:32.268Z,11.00
2023-04-20T17:31:01.059Z,10.80
2023-04-20T17:33:29.697Z,12.20
2023-04-20T17:36:01.289Z,9.20
2023-04-20T17:38:30.482Z,11.90
2023-04-20T17:41:01.217Z,13.10
2023-04-20T17:43:29.804Z,11.50
2023-04-20T17:46:00.936Z,15.70
2023-04-20T17:48:29.620Z,14.70
2023-04-20T17:51:00.365Z,12.40
2023-04-20T17:53:31.807Z,12.80
2023-04-20T17:56:03.773Z,14.30
2023-04-20T17:58:32.900Z,12.60
2023-04-20T18:01:01.586Z,14.90
2023-04-20T18:03:33.126Z,12.70
2023-04-20T18:06:04.847Z,10.90
2023-04-20T18:08:34.813Z,18.10
2023-04-20T18:13:41.966Z,11.90
2023-04-20T18:16:13.645Z,10.20
2023-04-20T18:18:49.879Z,13.00
2023-04-20T18:21:18.563Z,17.50
2023-04-20T18:23:49.909Z,12.10
2023-04-20T18:26:25.049Z,14.80
2023-04-20T18:28:56.592Z,13.50
2023-04-20T18:31:27.983Z,15.00
2023-04-20T18:33:59.927Z,15.00
2023-04-20T18:36:34.017Z,14.90
2023-04-20T18:39:12.943Z,17.00
2023-04-20T18:41:54.114Z,13.90
2023-04-20T18:44:28.426Z,12.40
2023-04-20T18:47:00.032Z,13.20
2023-04-20T18:49:35.117Z,23.00
2023-04-20T18:52:06.162Z,25.40
2023-04-20T18:54:57.789Z,19.80
2023-04-20T18:57:32.737Z,19.40
2023-04-20T19:00:11.398Z,20.90
2023-04-20T19:02:46.610Z,13.70
2023-04-20T19:05:44.024Z,12.00
2023-04-20T19:08:18.136Z,38.30
2023-04-20T19:11:12.241Z,29.00
2023-04-20T19:13:48.684Z,56.90
2023-04-20T19:16:25.203Z,49.20
2023-04-20T19:19:03.053Z,40.40
2023-04-20T19:21:40.009Z,37.20
2023-04-20T19:24:20.695Z,41.30
2023-04-20T19:26:55.115Z,37.40
2023-04-20T19:29:35.572Z,39.80
2023-04-20T19:32:21.646Z,37.40
2023-04-20T19:34:57.924Z,42.00
2023-04-20T19:37:34.300Z,27.40
2023-04-20T19:40:16.824Z,27.30
2023-04-20T19:42:50.204Z,30.20
2023-04-20T19:45:23.896Z,29.80
2023-04-20T19:48:00.716Z,35.10
2023-04-20T19:50:42.387Z,31.70
2023-04-20T19:53:14.111Z,32.60
2023-04-20T19:55:48.884Z,30.80
2023-04-20T19:58:20.289Z,23.20
2023-04-20T20:00:54.385Z,19.00
2023-04-20T20:03:35.225Z,11.00
2023-04-20T20:06:09.483Z,10.70
2023-04-20T20:08:50.052Z,11.80
2023-04-20T20:11:25.595Z,12.30
2023-04-20T20:14:09.340Z,12.10
2023-04-20T20:16:57.464Z,15.30
2023-04-20T20:19:31.613Z,13.80
2023-04-20T20:22:05.588Z,15.80
2023-04-20T20:24:46.967Z,11.10
2023-04-20T20:27:28.451Z,12.20
2023-04-20T20:30:14.034Z,11.40
2023-04-20T20:32:57.392Z,15.20
2023-04-20T20:35:31.383Z,13.80
2023-04-20T20:38:10.497Z,14.10
2023-04-20T20:40:47.074Z,15.90
2023-04-20T20:43:30.292Z,15.00
2023-04-20T20:46:07.210Z,17.70
2023-04-20T20:48:48.447Z,12.20
2023-04-20T20:51:28.599Z,20.30
2023-04-20T20:54:06.514Z,17.30
2023-04-20T20:56:46.761Z,15.40
2023-04-20T20:59:18.423Z,12.20
2023-04-20T21:02:12.113Z,12.30
2023-04-20T21:07:50.515Z,11.50
2023-04-20T21:10:32.096Z,14.90
2023-04-20T21:13:08.050Z,13.40
2023-04-20T21:15:45.531Z,9.70
2023-04-20T21:18:25.695Z,13.90
2023-04-20T21:21:06.055Z,12.30
2023-04-20T21:23:48.870Z,12.70
2023-04-20T21:26:35.931Z,13.40
2023-04-20T21:29:15.945Z,13.10
2023-04-20T21:32:09.933Z,13.20
2023-04-20T21:35:04.717Z,13.20
2023-04-20T21:37:44.249Z,14.30
2023-04-20T21:40:41.574Z,15.80
2023-04-20T21:43:26.892Z,11.70
2023-04-20T21:46:27.750Z,17.10
2023-04-20T21:49:08.285Z,11.60
2023-04-20T21:51:49.356Z,15.40
2023-04-20T21:54:53.519Z,12.40
2023-04-20T21:57:33.742Z,14.70
2023-04-20T22:00:15.820Z,14.60
2023-04-20T22:02:59.374Z,12.90
2023-04-20T22:05:43.803Z,12.80
2023-04-20T22:08:52.533Z,12.40
2023-04-20T22:11:49.912Z,16.20
2023-04-20T22:14:38.748Z,13.30
2023-04-20T22:17:22.424Z,16.90
2023-04-20T22:20:16.989Z,20.70
2023-04-20T22:23:10.944Z,18.00
2023-04-20T22:26:18.134Z,15.90
2023-04-20T22:28:55.728Z,14.60
2023-04-20T22:31:52.165Z,13.80
2023-04-20T22:34:41.223Z,15.60
2023-04-20T22:37:38.582Z,16.30
2023-04-20T22:40:30.625Z,13.90
2023-04-20T22:43:11.478Z,13.80
2023-04-20T22:46:22.808Z,18.50
2023-04-20T22:49:27.384Z,20.40
2023-04-20T22:52:15.625Z,11.80
2023-04-20T22:55:08.789Z,15.70
2023-04-20T22:58:00.200Z,19.30
2023-04-20T23:00:48.967Z,14.10
2023-04-20T23:03:33.514Z,16.60
2023-04-20T23:06:38.035Z,12.90
2023-04-20T23:09:42.355Z,12.90
2023-04-20T23:12:48.035Z,13.70
2023-04-20T23:15:40.035Z,16.20
2023-04-20T23:18:34.522Z,13.80
2023-04-20T23:21:35.515Z,16.10
2023-04-20T23:24:47.672Z,15.90
2023-04-20T23:27:58.746Z,15.30
2023-04-20T23:30:53.952Z,14.80
2023-04-20T23:34:11.458Z,16.10
2023-04-20T23:37:02.183Z,16.50
2023-04-20T23:40:23.128Z,13.60
2023-04-20T23:43:10.823Z,16.40
2023-04-20T23:46:10.136Z,15.50
2023-04-20T23:48:56.525Z,15.10
2023-04-20T23:51:47.477Z,17.10
2023-04-20T23:54:51.337Z,16.70
2023-04-20T23:58:00.268Z,15.70
